Time;durP1;ratioP1;P1;durP2;ratioP2;P2;SDS_P1;SDS_P2;PMS_P1;PMS_P2;Temp;Humidity;BMP_temperature;BMP_pressure;BME280_temperature;BME280_humidity;BME280_pressure;Samples;Min_cycle;Max_cycle;Signal;HPM_P1;HPM_P2
2021/06/01 00:01:22;;;;;;;5.50;3.90;;;;;;;;;;4402549;32;20243;-58
2021/06/01 00:03:48;;;;;;;4.72;3.70;;;;;;;;;;4402846;32;20298;-58
2021/06/01 00:06:14;;;;;;;4.45;3.83;;;;;;;;;;4389007;32;20225;-58
2021/06/01 00:08:40;;;;;;;5.80;4.12;;;;;;;;;;4402927;32;20206;-58
2021/06/01 00:11:06;;;;;;;5.80;5.15;;;;;;;;;;4402496;32;20622;-59
2021/06/01 00:13:32;;;;;;;6.28;3.42;;;;;;;;;;4402752;32;20301;-57
2021/06/01 00:15:58;;;;;;;8.52;3.90;;;;;;;;;;4402903;32;20269;-59
2021/06/01 00:18:23;;;;;;;4.90;4.03;;;;;;;;;;4403655;32;20189;-57
2021/06/01 00:20:49;;;;;;;5.65;4.07;;;;;;;;;;4417493;32;20265;-58
2021/06/01 00:23:14;;;;;;;8.15;3.70;;;;;;;;;;4417482;32;20198;-57
2021/06/01 00:25:39;;;;;;;7.83;4.20;;;;;;;;;;4417937;32;20629;-57
2021/06/01 00:28:05;;;;;;;6.50;4.63;;;;;;;;;;4417508;32;20258;-63
2021/06/01 00:30:30;;;;;;;5.93;3.97;;;;;;;;;;4417694;32;20593;-59
2021/06/01 00:32:56;;;;;;;4.95;4.10;;;;;;;;;;4403997;32;20308;-57
2021/06/01 00:35:21;;;;;;;4.45;3.90;;;;;;;;;;4417888;32;20272;-57
2021/06/01 00:37:47;;;;;;;9.68;4.05;;;;;;;;;;4417927;32;20643;-57
2021/06/01 00:40:12;;;;;;;6.20;4.03;;;;;;;;;;4417952;32;20348;-57
2021/06/01 00:42:38;;;;;;;6.13;4.43;;;;;;;;;;4418903;32;20217;-57
2021/06/01 00:45:04;;;;;;;5.47;4.50;;;;;;;;;;4420624;32;20572;-58
2021/06/01 00:47:29;;;;;;;7.23;4.73;;;;;;;;;;4420829;32;20612;-58
2021/06/01 00:49:55;;;;;;;5.67;3.57;;;;;;;;;;4420788;32;20235;-57
2021/06/01 00:52:20;;;;;;;7.50;4.32;;;;;;;;;;4420819;32;20263;-58
2021/06/01 00:54:47;;;;;;;6.40;3.97;;;;;;;;;;4420570;32;20804;-58
2021/06/01 00:57:13;;;;;;;3.50;3.03;;;;;;;;;;4420416;32;20622;-57
2021/06/01 00:59:38;;;;;;;3.50;3.20;;;;;;;;;;4420482;32;20234;-58
2021/06/01 01:02:05;;;;;;;3.50;3.20;;;;;;;;;;4420609;32;20209;-58
2021/06/01 01:04:34;;;;;;;3.77;3.30;;;;;;;;;;4420195;32;20511;-58
2021/06/01 01:07:18;;;;;;;8.80;3.65;;;;;;;;;;4406752;32;20221;-59
2021/06/01 01:09:48;;;;;;;3.40;2.80;;;;;;;;;;4420404;32;20604;-59
2021/06/01 01:12:21;;;;;;;3.20;2.85;;;;;;;;;;4420365;32;20241;-59
2021/06/01 01:14:54;;;;;;;3.22;2.92;;;;;;;;;;4420415;32;20713;-59
2021/06/01 01:17:25;;;;;;;3.63;3.33;;;;;;;;;;4420496;32;20603;-59
2021/06/01 01:20:10;;;;;;;10.67;3.60;;;;;;;;;;4420006;32;20209;-59
2021/06/01 01:22:44;;;;;;;5.33;2.97;;;;;;;;;;4420539;32;20506;-61
2021/06/01 01:25:29;;;;;;;10.67;4.00;;;;;;;;;;4419735;32;20218;-59
2021/06/01 01:28:19;;;;;;;8.27;3.13;;;;;;;;;;4419196;32;20228;-58
2021/06/01 01:30:47;;;;;;;3.87;3.10;;;;;;;;;;4420020;32;20270;-59
2021/06/01 01:33:20;;;;;;;11.10;3.40;;;;;;;;;;4419900;32;20194;-58
2021/06/01 01:35:48;;;;;;;3.00;2.70;;;;;;;;;;4420165;32;20185;-58
2021/06/01 01:38:15;;;;;;;3.60;2.73;;;;;;;;;;4419718;32;20235;-58
2021/06/01 01:40:43;;;;;;;3.63;3.33;;;;;;;;;;4420282;32;20189;-59
2021/06/01 01:43:14;;;;;;;6.47;3.03;;;;;;;;;;4419609;32;20582;-59
2021/06/01 01:45:43;;;;;;;3.50;3.17;;;;;;;;;;4420030;32;20588;-58
2021/06/01 01:51:00;;;;;;;3.30;3.00;;;;;;;;;;4419611;32;20266;-58
2021/06/01 01:53:27;;;;;;;8.37;3.87;;;;;;;;;;4419526;32;20209;-58
2021/06/01 01:55:54;;;;;;;6.47;4.23;;;;;;;;;;4419584;32;20327;-59
2021/06/01 01:58:20;;;;;;;4.83;3.70;;;;;;;;;;4419932;32;20262;-58
2021/06/01 02:00:48;;;;;;;5.50;3.47;;;;;;;;;;4419825;32;20277;-58
2021/06/01 02:03:14;;;;;;;8.30;3.70;;;;;;;;;;4419868;32;20666;-57
2021/06/01 02:05:41;;;;;;;8.17;4.07;;;;;;;;;;4419703;32;20581;-58
2021/06/01 02:08:10;;;;;;;4.80;3.17;;;;;;;;;;4419790;32;20283;-58
2021/06/01 02:10:35;;;;;;;7.20;3.83;;;;;;;;;;4405659;32;20410;-59
2021/06/01 02:13:02;;;;;;;6.10;3.73;;;;;;;;;;4419166;32;20251;-58
2021/06/01 02:15:27;;;;;;;8.33;3.87;;;;;;;;;;4405500;32;20665;-59
2021/06/01 02:17:53;;;;;;;5.13;3.30;;;;;;;;;;4419637;32;20239;-57
2021/06/01 02:20:18;;;;;;;4.30;3.90;;;;;;;;;;4419053;32;20665;-57
2021/06/01 02:26:03;;;;;;;7.87;3.20;;;;;;;;;;4418975;32;20602;-57
2021/06/01 02:28:41;;;;;;;5.50;3.83;;;;;;;;;;4418900;32;20630;-58
2021/06/01 02:31:16;;;;;;;5.00;3.77;;;;;;;;;;4418931;32;20357;-57
2021/06/01 02:33:44;;;;;;;4.50;4.10;;;;;;;;;;4419336;32;20642;-57
2021/06/01 02:36:13;;;;;;;9.77;3.60;;;;;;;;;;4418878;32;20244;-58
2021/06/01 02:38:38;;;;;;;4.97;4.28;;;;;;;;;;4405573;32;20492;-57
2021/06/01 02:41:05;;;;;;;4.40;3.70;;;;;;;;;;4419097;32;20334;-57
2021/06/01 02:43:30;;;;;;;11.50;4.67;;;;;;;;;;4418750;32;20194;-57
2021/06/01 02:45:56;;;;;;;3.97;3.57;;;;;;;;;;4404803;32;20299;-57
2021/06/01 02:48:23;;;;;;;6.97;4.97;;;;;;;;;;4418794;32;20200;-58
2021/06/01 02:50:52;;;;;;;4.90;4.40;;;;;;;;;;4418985;32;20606;-57
2021/06/01 02:53:20;;;;;;;5.47;4.93;;;;;;;;;;4418844;32;20186;-58
2021/06/01 02:55:45;;;;;;;5.90;4.50;;;;;;;;;;4418596;32;20220;-58
2021/06/01 02:58:13;;;;;;;5.15;3.70;;;;;;;;;;4418466;32;20209;-60
2021/06/01 03:00:42;;;;;;;9.38;4.37;;;;;;;;;;4418977;32;20618;-59
2021/06/01 03:03:09;;;;;;;5.80;3.93;;;;;;;;;;4418258;32;20356;-60
2021/06/01 03:05:35;;;;;;;14.40;3.63;;;;;;;;;;4417961;32;20221;-59
2021/06/01 03:08:15;;;;;;;4.90;4.13;;;;;;;;;;4418608;32;20293;-59
2021/06/01 03:10:40;;;;;;;6.03;4.00;;;;;;;;;;4418689;32;20193;-60
2021/06/01 03:13:06;;;;;;;4.70;4.27;;;;;;;;;;4418431;32;20680;-58
2021/06/01 03:15:31;;;;;;;7.47;3.50;;;;;;;;;;4404449;32;20316;-59
2021/06/01 03:17:57;;;;;;;4.97;3.90;;;;;;;;;;4391748;32;20296;-58
2021/06/01 03:20:23;;;;;;;5.03;4.20;;;;;;;;;;4418191;32;20268;-59
2021/06/01 03:22:48;;;;;;;5.90;4.10;;;;;;;;;;4418387;32;20547;-58
2021/06/01 03:25:14;;;;;;;3.60;3.30;;;;;;;;;;4418322;32;20315;-59
2021/06/01 03:27:40;;;;;;;5.53;3.20;;;;;;;;;;4418012;32;20578;-57
2021/06/01 03:30:10;;;;;;;5.03;3.30;;;;;;;;;;4418218;32;20215;-57
2021/06/01 03:32:36;;;;;;;10.27;3.50;;;;;;;;;;4418196;32;20229;-57
2021/06/01 03:35:01;;;;;;;8.57;4.20;;;;;;;;;;4418091;32;20545;-58
2021/06/01 03:37:27;;;;;;;7.60;3.63;;;;;;;;;;4404467;32;20308;-59
2021/06/01 03:39:53;;;;;;;6.73;3.63;;;;;;;;;;4418026;32;20268;-57
2021/06/01 03:42:19;;;;;;;6.23;3.37;;;;;;;;;;4404308;32;20221;-57
2021/06/01 03:44:45;;;;;;;8.47;4.67;;;;;;;;;;4404332;32;20202;-57
2021/06/01 03:47:11;;;;;;;9.23;4.90;;;;;;;;;;4391846;32;20221;-57
2021/06/01 03:49:37;;;;;;;3.93;3.50;;;;;;;;;;4417879;32;20287;-57
2021/06/01 03:52:08;;;;;;;7.27;4.20;;;;;;;;;;4418215;32;20271;-56
2021/06/01 03:54:35;;;;;;;5.63;3.67;;;;;;;;;;4418121;32;20270;-57
2021/06/01 03:57:01;;;;;;;7.10;3.50;;;;;;;;;;4417839;32;20304;-58
2021/06/01 03:59:26;;;;;;;8.80;3.63;;;;;;;;;;4417840;32;20255;-58
2021/06/01 04:01:52;;;;;;;6.57;3.70;;;;;;;;;;4417925;32;20590;-58
2021/06/01 04:04:17;;;;;;;9.07;3.60;;;;;;;;;;4417650;32;20375;-59
2021/06/01 04:06:43;;;;;;;4.37;3.80;;;;;;;;;;4417619;32;20292;-58
2021/06/01 04:09:08;;;;;;;5.40;3.80;;;;;;;;;;4417339;32;20205;-58
2021/06/01 04:11:34;;;;;;;6.37;3.90;;;;;;;;;;4417605;32;20240;-59
2021/06/01 04:13:59;;;;;;;6.80;3.67;;;;;;;;;;4404017;32;20237;-59
2021/06/01 04:16:25;;;;;;;5.17;4.10;;;;;;;;;;4417874;32;20248;-58
2021/06/01 04:18:50;;;;;;;7.90;5.27;;;;;;;;;;4422403;32;20276;-59
2021/06/01 04:21:16;;;;;;;7.13;6.27;;;;;;;;;;4422737;32;20255;-58
2021/06/01 04:23:41;;;;;;;14.17;6.30;;;;;;;;;;4422892;32;20438;-59
2021/06/01 04:26:07;;;;;;;14.90;6.20;;;;;;;;;;4422871;32;20311;-59
2021/06/01 04:28:32;;;;;;;10.47;5.10;;;;;;;;;;4407324;32;20652;-58
2021/06/01 04:30:58;;;;;;;10.77;5.10;;;;;;;;;;4410908;32;20272;-58
2021/06/01 04:33:23;;;;;;;12.27;6.77;;;;;;;;;;4422235;32;20298;-59
2021/06/01 04:35:49;;;;;;;9.70;4.70;;;;;;;;;;4422455;32;20679;-59
2021/06/01 04:38:14;;;;;;;5.70;5.10;;;;;;;;;;4422705;32;20702;-59
2021/06/01 04:40:40;;;;;;;6.07;5.27;;;;;;;;;;4422511;32;20308;-59
2021/06/01 04:43:05;;;;;;;7.73;5.40;;;;;;;;;;4422701;32;20299;-58
2021/06/01 04:45:31;;;;;;;10.23;5.77;;;;;;;;;;4422940;32;20288;-59
2021/06/01 04:47:56;;;;;;;11.80;4.00;;;;;;;;;;4422337;32;20303;-58
2021/06/01 04:50:21;;;;;;;5.47;4.47;;;;;;;;;;4422441;32;20426;-57
2021/06/01 04:52:50;;;;;;;10.60;4.67;;;;;;;;;;4422402;32;20626;-57
2021/06/01 04:55:16;;;;;;;10.73;5.00;;;;;;;;;;4422028;32;20193;-58
2021/06/01 04:57:41;;;;;;;5.60;4.77;;;;;;;;;;4422183;32;20380;-58
2021/06/01 05:00:08;;;;;;;6.00;4.70;;;;;;;;;;4422329;32;20280;-59
2021/06/01 05:02:34;;;;;;;6.70;4.53;;;;;;;;;;4422461;32;20565;-58
2021/06/01 05:05:00;;;;;;;8.83;4.43;;;;;;;;;;4421904;32;20205;-58
2021/06/01 05:07:25;;;;;;;10.90;4.70;;;;;;;;;;4422102;32;20543;-56
2021/06/01 05:09:51;;;;;;;7.57;4.03;;;;;;;;;;4422110;32;20190;-57
2021/06/01 05:12:16;;;;;;;9.27;4.73;;;;;;;;;;4421790;32;20318;-57
2021/06/01 05:14:42;;;;;;;7.23;4.70;;;;;;;;;;4421581;32;20193;-57
2021/06/01 05:17:07;;;;;;;9.67;5.10;;;;;;;;;;4422090;32;20217;-58
2021/06/01 05:19:33;;;;;;;12.20;5.50;;;;;;;;;;4420580;32;20272;-57
2021/06/01 05:21:58;;;;;;;9.47;5.87;;;;;;;;;;4408092;32;20225;-58
2021/06/01 05:24:24;;;;;;;11.63;5.40;;;;;;;;;;4422295;32;20233;-57
2021/06/01 05:26:50;;;;;;;15.17;6.57;;;;;;;;;;4421761;32;20213;-59
2021/06/01 05:29:16;;;;;;;17.40;6.93;;;;;;;;;;4405925;32;20209;-59
2021/06/01 05:34:11;;;;;;;12.87;6.67;;;;;;;;;;4419363;32;20219;-59
2021/06/01 05:36:37;;;;;;;8.73;6.00;;;;;;;;;;4419351;32;20356;-58
2021/06/01 05:39:06;;;;;;;13.47;6.87;;;;;;;;;;4405602;32;20274;-58
2021/06/01 05:41:32;;;;;;;8.90;5.90;;;;;;;;;;4419000;32;20222;-59
2021/06/01 05:43:57;;;;;;;10.47;7.73;;;;;;;;;;4417470;32;20208;-60
2021/06/01 05:46:23;;;;;;;13.27;6.87;;;;;;;;;;4417693;32;20260;-57
2021/06/01 05:48:49;;;;;;;20.80;7.43;;;;;;;;;;4417333;32;20235;-59
2021/06/01 05:51:17;;;;;;;13.97;7.87;;;;;;;;;;4417143;32;20710;-57
2021/06/01 05:53:44;;;;;;;13.85;7.62;;;;;;;;;;4416756;32;20689;-59
2021/06/01 05:56:09;;;;;;;17.53;6.60;;;;;;;;;;4417097;32;20684;-59
2021/06/01 05:58:35;;;;;;;14.15;6.25;;;;;;;;;;4419204;32;20182;-58
2021/06/01 06:01:00;;;;;;;13.67;8.03;;;;;;;;;;4405144;32;20394;-58
2021/06/01 06:03:26;;;;;;;9.30;6.30;;;;;;;;;;4419061;32;20857;-57
2021/06/01 06:05:51;;;;;;;10.50;5.77;;;;;;;;;;4418459;32;20563;-57
2021/06/01 06:08:19;;;;;;;7.83;5.50;;;;;;;;;;4418758;32;20337;-57
2021/06/01 06:10:46;;;;;;;18.73;7.90;;;;;;;;;;4404760;32;20284;-58
2021/06/01 06:13:12;;;;;;;7.65;5.10;;;;;;;;;;4418841;32;20239;-57
2021/06/01 06:15:39;;;;;;;6.35;5.03;;;;;;;;;;4418150;32;20676;-59
2021/06/01 06:18:04;;;;;;;11.60;5.63;;;;;;;;;;4418381;32;20553;-58
2021/06/01 06:20:31;;;;;;;11.90;5.43;;;;;;;;;;4417196;32;20268;-58
2021/06/01 06:23:00;;;;;;;7.32;4.07;;;;;;;;;;4418923;32;20263;-57
2021/06/01 06:25:26;;;;;;;4.85;4.28;;;;;;;;;;4404791;32;20248;-59
2021/06/01 06:27:52;;;;;;;17.10;5.37;;;;;;;;;;4418751;32;20239;-59
2021/06/01 06:30:18;;;;;;;10.70;6.15;;;;;;;;;;4404743;32;20570;-59
2021/06/01 06:32:44;;;;;;;8.05;4.82;;;;;;;;;;4418331;32;20243;-59
2021/06/01 06:35:10;;;;;;;13.77;5.40;;;;;;;;;;4417770;32;20295;-59
2021/06/01 06:37:36;;;;;;;14.60;5.40;;;;;;;;;;4418742;32;20225;-58
2021/06/01 06:40:07;;;;;;;8.20;5.13;;;;;;;;;;4417808;32;20716;-58
2021/06/01 06:42:33;;;;;;;7.53;3.97;;;;;;;;;;4418392;32;20546;-58
2021/06/01 06:44:59;;;;;;;5.95;4.25;;;;;;;;;;4404720;32;20236;-57
2021/06/01 06:50:08;;;;;;;5.63;3.73;;;;;;;;;;4417766;32;20229;-59
2021/06/01 06:52:35;;;;;;;4.07;3.67;;;;;;;;;;4417845;32;20323;-58
2021/06/01 06:55:01;;;;;;;6.47;3.20;;;;;;;;;;4417553;32;20209;-59
2021/06/01 06:57:26;;;;;;;3.70;3.40;;;;;;;;;;4417301;32;20317;-57
2021/06/01 06:59:52;;;;;;;7.20;3.57;;;;;;;;;;4417363;32;20276;-59
2021/06/01 07:02:18;;;;;;;4.78;4.28;;;;;;;;;;4417916;32;20228;-59
2021/06/01 07:04:44;;;;;;;4.78;3.80;;;;;;;;;;4417701;32;20319;-59
2021/06/01 07:07:09;;;;;;;6.50;2.90;;;;;;;;;;4403714;32;20221;-59
2021/06/01 07:09:38;;;;;;;3.60;3.30;;;;;;;;;;4416338;32;20542;-59
2021/06/01 07:12:04;;;;;;;9.20;3.60;;;;;;;;;;4402514;32;20323;-59
2021/06/01 07:15:12;;;;;;;6.80;3.97;;;;;;;;;;4416969;32;20308;-58
2021/06/01 07:17:42;;;;;;;6.10;3.90;;;;;;;;;;4407899;32;20360;-58
2021/06/01 07:20:09;;;;;;;6.87;3.57;;;;;;;;;;4414938;32;20343;-59
2021/06/01 07:22:34;;;;;;;4.50;3.85;;;;;;;;;;4401467;32;20314;-57
2021/06/01 07:25:00;;;;;;;4.00;3.63;;;;;;;;;;4416840;32;20213;-58
2021/06/01 07:27:26;;;;;;;4.40;4.00;;;;;;;;;;4402948;32;20665;-57
2021/06/01 07:29:52;;;;;;;4.30;3.90;;;;;;;;;;4416318;32;20232;-57
2021/06/01 07:32:17;;;;;;;5.10;4.30;;;;;;;;;;4417073;32;20307;-56
2021/06/01 07:34:43;;;;;;;5.18;3.70;;;;;;;;;;4416474;32;20232;-58
2021/06/01 07:37:08;;;;;;;4.67;3.90;;;;;;;;;;4401628;32;20232;-59
2021/06/01 07:39:33;;;;;;;5.33;4.03;;;;;;;;;;4415989;32;20229;-58
2021/06/01 07:41:59;;;;;;;6.87;3.47;;;;;;;;;;4416581;32;20650;-59
2021/06/01 07:44:25;;;;;;;7.07;4.32;;;;;;;;;;4416263;32;20227;-59
2021/06/01 07:46:51;;;;;;;4.30;3.75;;;;;;;;;;4416811;32;20236;-57
2021/06/01 07:49:17;;;;;;;4.18;3.75;;;;;;;;;;4416419;32;20808;-58
2021/06/01 07:51:43;;;;;;;3.55;3.25;;;;;;;;;;4415867;32;20308;-58
2021/06/01 07:54:08;;;;;;;3.60;3.30;;;;;;;;;;4402971;32;20232;-59
2021/06/01 07:56:34;;;;;;;3.25;2.95;;;;;;;;;;4417149;32;20309;-58
2021/06/01 07:59:00;;;;;;;5.28;3.40;;;;;;;;;;4416824;32;20522;-57
2021/06/01 08:01:25;;;;;;;3.12;2.83;;;;;;;;;;4417743;32;20235;-57
2021/06/01 08:03:51;;;;;;;2.35;2.15;;;;;;;;;;4416949;32;20258;-57
2021/06/01 08:06:17;;;;;;;2.83;2.53;;;;;;;;;;4416890;32;20320;-58
2021/06/01 08:08:42;;;;;;;3.83;3.08;;;;;;;;;;4417251;32;20258;-58
2021/06/01 08:11:08;;;;;;;3.80;2.42;;;;;;;;;;4416906;32;20287;-57
2021/06/01 08:13:34;;;;;;;2.25;2.03;;;;;;;;;;4416875;32;20254;-59
2021/06/01 08:16:01;;;;;;;8.00;2.45;;;;;;;;;;4403831;32;20606;-58
2021/06/01 08:18:28;;;;;;;4.37;3.08;;;;;;;;;;4416978;32;20232;-57
2021/06/01 08:23:20;;;;;;;5.18;3.15;;;;;;;;;;4401573;32;20244;-58
2021/06/01 08:25:45;;;;;;;2.78;2.58;;;;;;;;;;4401898;32;20339;-60
2021/06/01 08:28:11;;;;;;;3.08;2.28;;;;;;;;;;4414242;32;20695;-58
2021/06/01 08:30:36;;;;;;;2.08;1.85;;;;;;;;;;4403096;32;20828;-58
2021/06/01 08:33:02;;;;;;;1.90;1.50;;;;;;;;;;4415172;32;20245;-58
2021/06/01 08:35:28;;;;;;;1.60;1.50;;;;;;;;;;4415669;32;20337;-60
2021/06/01 08:37:53;;;;;;;2.10;1.83;;;;;;;;;;4417363;32;20508;-59
2021/06/01 08:40:19;;;;;;;6.53;2.15;;;;;;;;;;4416900;32;20287;-58
2021/06/01 08:42:44;;;;;;;2.35;2.15;;;;;;;;;;4416635;32;20209;-58
2021/06/01 08:45:11;;;;;;;3.25;1.87;;;;;;;;;;4416666;32;20272;-60
2021/06/01 08:47:40;;;;;;;6.00;1.87;;;;;;;;;;4403350;32;20274;-58
2021/06/01 08:50:08;;;;;;;2.28;1.50;;;;;;;;;;4390634;32;20258;-58
2021/06/01 08:52:35;;;;;;;2.08;1.85;;;;;;;;;;4417440;32;20472;-59
2021/06/01 08:55:01;;;;;;;3.17;1.48;;;;;;;;;;4416882;32;20232;-58
2021/06/01 08:57:26;;;;;;;2.60;1.80;;;;;;;;;;4417289;32;20375;-58
2021/06/01 08:59:53;;;;;;;3.83;1.85;;;;;;;;;;4416548;32;20571;-58
2021/06/01 09:02:22;;;;;;;2.30;1.80;;;;;;;;;;4403095;32;20228;-58
2021/06/01 09:04:55;;;;;;;2.10;1.08;;;;;;;;;;4407862;32;20210;-58
2021/06/01 09:07:50;;;;;;;1.35;1.23;;;;;;;;;;4402230;32;20258;-58
2021/06/01 09:21:39;;;;;;;3.53;1.40;;;;;;;;;;4416037;32;20251;-56
2021/06/01 09:24:06;;;;;;;1.58;1.02;;;;;;;;;;4410845;32;20321;-57
2021/06/01 09:27:16;;;;;;;3.03;1.33;;;;;;;;;;4396633;32;20370;-57
2021/06/01 09:29:47;;;;;;;1.65;0.80;;;;;;;;;;4418298;32;20250;-58
2021/06/01 09:32:18;;;;;;;2.12;1.30;;;;;;;;;;4415632;32;20275;-59
2021/06/01 09:34:54;;;;;;;2.62;1.70;;;;;;;;;;4404415;32;20286;-58
2021/06/01 09:37:28;;;;;;;1.20;1.10;;;;;;;;;;4418036;32;20293;-58
2021/06/01 09:40:13;;;;;;;1.95;1.50;;;;;;;;;;4408519;32;20238;-58
2021/06/01 09:42:46;;;;;;;4.05;2.00;;;;;;;;;;4404352;32;20244;-61
2021/06/01 09:45:17;;;;;;;1.98;1.70;;;;;;;;;;4403869;32;20685;-58
2021/06/01 09:47:45;;;;;;;2.08;1.70;;;;;;;;;;4390375;32;20544;-58
2021/06/01 09:53:31;;;;;;;1.75;1.60;;;;;;;;;;4368745;32;20225;-58
2021/06/01 09:55:58;;;;;;;1.87;1.75;;;;;;;;;;4406594;32;20449;-58
2021/06/01 09:58:36;;;;;;;2.58;1.87;;;;;;;;;;4404909;32;20243;-58
2021/06/01 10:01:04;;;;;;;1.73;1.50;;;;;;;;;;4418587;32;20189;-57
2021/06/01 10:03:40;;;;;;;2.53;1.85;;;;;;;;;;4416952;32;20266;-58
2021/06/01 10:06:06;;;;;;;4.35;1.98;;;;;;;;;;4417382;32;20250;-58
2021/06/01 10:08:32;;;;;;;1.83;1.73;;;;;;;;;;4404403;32;20649;-58
2021/06/01 10:11:04;;;;;;;2.15;1.95;;;;;;;;;;4417863;32;20541;-58
2021/06/01 10:13:32;;;;;;;2.58;2.10;;;;;;;;;;4417181;32;20278;-58
2021/06/01 10:16:03;;;;;;;4.07;1.40;;;;;;;;;;4417846;32;20299;-58
2021/06/01 10:18:30;;;;;;;8.15;1.98;;;;;;;;;;4417832;32;20265;-59
2021/06/01 10:20:57;;;;;;;3.72;1.85;;;;;;;;;;4417970;32;20223;-58
2021/06/01 10:23:28;;;;;;;1.50;1.40;;;;;;;;;;4403864;32;20247;-58
2021/06/01 10:25:55;;;;;;;8.43;2.60;;;;;;;;;;4418044;32;20511;-58
2021/06/01 10:28:29;;;;;;;6.07;2.33;;;;;;;;;;4416899;32;20232;-58
2021/06/01 10:30:56;;;;;;;2.65;2.10;;;;;;;;;;4399913;32;20339;-58
2021/06/01 10:33:26;;;;;;;5.50;2.67;;;;;;;;;;4403120;32;20197;-58
2021/06/01 10:50:35;;;;;;;3.55;2.20;;;;;;;;;;4402969;32;20563;-58
2021/06/01 10:53:23;;;;;;;2.97;2.17;;;;;;;;;;4402928;32;20209;-58
2021/06/01 10:55:51;;;;;;;2.67;2.00;;;;;;;;;;4389381;32;20249;-58
2021/06/01 10:58:25;;;;;;;2.97;2.65;;;;;;;;;;4403211;32;20275;-57
2021/06/01 11:03:34;;;;;;;2.50;2.28;;;;;;;;;;4402974;32;20293;-58
2021/06/01 11:06:02;;;;;;;4.60;2.40;;;;;;;;;;4402669;32;20665;-58
2021/06/01 11:08:38;;;;;;;3.83;2.37;;;;;;;;;;4402467;32;20300;-58
2021/06/01 11:11:22;;;;;;;7.22;2.60;;;;;;;;;;4402945;32;20229;-59
2021/06/01 11:13:48;;;;;;;4.80;3.40;;;;;;;;;;4402959;32;20652;-57
2021/06/01 11:16:13;;;;;;;2.92;2.70;;;;;;;;;;4402851;32;20251;-58
2021/06/01 11:18:45;;;;;;;3.28;2.72;;;;;;;;;;4403676;32;20194;-59
2021/06/01 11:21:21;;;;;;;7.60;3.45;;;;;;;;;;4404176;32;20217;-58
2021/06/01 11:35:24;;;;;;;8.50;2.92;;;;;;;;;;4417565;32;20548;-59
2021/06/01 11:38:14;;;;;;;3.10;2.40;;;;;;;;;;4417885;32;20303;-59
2021/06/01 11:43:22;;;;;;;6.90;3.40;;;;;;;;;;4417785;32;20205;-59
2021/06/01 11:51:19;;;;;;;4.78;3.78;;;;;;;;;;4418274;32;20248;-59
2021/06/01 11:53:45;;;;;;;6.00;4.12;;;;;;;;;;4417944;32;20224;-59
2021/06/01 11:56:10;;;;;;;6.47;4.50;;;;;;;;;;4418175;32;20241;-58
2021/06/01 12:05:04;;;;;;;5.15;4.65;;;;;;;;;;4417822;32;20239;-57
2021/06/01 12:18:38;;;;;;;6.12;4.22;;;;;;;;;;4417647;32;20220;-59
2021/06/01 12:21:09;;;;;;;5.53;4.95;;;;;;;;;;4403570;32;20259;-58
2021/06/01 12:23:40;;;;;;;6.50;5.82;;;;;;;;;;4417483;32;20224;-58
2021/06/01 12:26:22;;;;;;;8.15;7.45;;;;;;;;;;4417911;32;20198;-58
2021/06/01 12:32:02;;;;;;;9.93;6.43;;;;;;;;;;4417642;32;20247;-59
2021/06/01 12:46:00;;;;;;;6.20;4.80;;;;;;;;;;4420550;32;20538;-59
2021/06/01 13:38:07;;;;;;;3.35;2.42;;;;;;;;;;4404603;32;20271;-59
2021/06/01 13:40:35;;;;;;;1.58;1.10;;;;;;;;;;4404133;32;20251;-58
2021/06/01 13:56:25;;;;;;;3.58;1.12;;;;;;;;;;4404579;32;20210;-59
2021/06/01 14:39:12;;;;;;;3.33;1.00;;;;;;;;;;4418950;32;20193;-58
2021/06/01 15:09:37;;;;;;;2.87;1.48;;;;;;;;;;4418786;32;20219;-58
2021/06/01 15:50:01;;;;;;;2.05;1.80;;;;;;;;;;4417924;32;20231;-59
2021/06/01 16:23:05;;;;;;;1.95;1.33;;;;;;;;;;4417932;32;20255;-58
2021/06/01 17:06:50;;;;;;;2.10;1.50;;;;;;;;;;4402360;32;20229;-59
2021/06/01 17:11:57;;;;;;;2.65;1.77;;;;;;;;;;4400303;32;20229;-58
2021/06/01 17:14:27;;;;;;;11.27;3.75;;;;;;;;;;4400164;32;20702;-58
2021/06/01 17:17:01;;;;;;;5.97;1.30;;;;;;;;;;4386674;32;20312;-58
2021/06/01 17:36:03;;;;;;;2.28;1.83;;;;;;;;;;4327797;33;20198;-58
2021/06/01 17:38:30;;;;;;;4.32;2.60;;;;;;;;;;4327243;33;20204;-57
2021/06/01 17:41:02;;;;;;;3.12;2.62;;;;;;;;;;4351829;32;20276;-58
2021/06/01 17:43:34;;;;;;;6.60;4.15;;;;;;;;;;4404712;32;20731;-59
2021/06/01 17:46:03;;;;;;;12.10;5.30;;;;;;;;;;4404786;32;20690;-59
2021/06/01 17:50:58;;;;;;;4.45;2.30;;;;;;;;;;4404628;32;20303;-59
2021/06/01 17:53:24;;;;;;;4.72;3.37;;;;;;;;;;4390573;32;20270;-59
2021/06/01 17:55:52;;;;;;;3.53;2.60;;;;;;;;;;4390773;32;20289;-58
2021/06/01 17:58:21;;;;;;;3.28;2.80;;;;;;;;;;4390627;32;20225;-59
2021/06/01 18:00:47;;;;;;;4.12;2.65;;;;;;;;;;4404570;32;20214;-59
2021/06/01 18:03:17;;;;;;;7.82;2.83;;;;;;;;;;4404430;32;20198;-59
2021/06/01 18:05:44;;;;;;;3.67;3.20;;;;;;;;;;4404140;32;20243;-57
2021/06/01 18:08:17;;;;;;;4.57;2.85;;;;;;;;;;4408652;32;20594;-59
2021/06/01 19:44:14;;;;;;;7.70;4.30;;;;;;;;;;4391455;32;20232;-57
2021/06/01 19:52:20;;;;;;;12.98;5.32;;;;;;;;;;4402679;32;20251;-58
2021/06/01 19:54:48;;;;;;;7.32;5.00;;;;;;;;;;4402550;32;20251;-59
2021/06/01 19:57:14;;;;;;;7.78;4.72;;;;;;;;;;4402214;32;20245;-58
2021/06/01 19:59:40;;;;;;;8.93;4.30;;;;;;;;;;4402773;32;20217;-58
2021/06/01 20:02:07;;;;;;;14.10;4.75;;;;;;;;;;4402643;32;20213;-59
2021/06/01 20:04:33;;;;;;;11.50;5.45;;;;;;;;;;4402429;32;20210;-59
2021/06/01 20:06:59;;;;;;;8.30;4.65;;;;;;;;;;4388829;32;20241;-59
2021/06/01 20:09:25;;;;;;;6.87;4.60;;;;;;;;;;4402649;32;20271;-58
2021/06/01 20:11:50;;;;;;;8.73;4.78;;;;;;;;;;4388978;32;20245;-58
2021/06/01 20:14:17;;;;;;;12.35;9.10;;;;;;;;;;4409121;32;20328;-57
2021/06/01 20:16:49;;;;;;;12.20;9.02;;;;;;;;;;4408188;32;20241;-57
2021/06/01 20:19:17;;;;;;;11.82;7.22;;;;;;;;;;4385112;32;20230;-56
2021/06/01 20:21:47;;;;;;;10.90;5.40;;;;;;;;;;4402488;32;20646;-57
2021/06/01 20:24:16;;;;;;;11.85;5.40;;;;;;;;;;4402754;32;20201;-58
2021/06/01 20:26:43;;;;;;;11.48;4.65;;;;;;;;;;4405554;32;20277;-58
2021/06/01 20:29:11;;;;;;;7.23;4.43;;;;;;;;;;4404251;32;20768;-59
2021/06/01 20:31:41;;;;;;;9.85;4.65;;;;;;;;;;4403822;32;20681;-59
2021/06/01 20:34:08;;;;;;;9.18;4.72;;;;;;;;;;4402005;32;20302;-59
2021/06/01 20:36:34;;;;;;;22.52;10.77;;;;;;;;;;4401085;32;20237;-58
2021/06/01 20:39:04;;;;;;;6.03;3.95;;;;;;;;;;4416971;32;20240;-58
2021/06/01 20:41:30;;;;;;;6.40;3.60;;;;;;;;;;4413583;32;20257;-58
2021/06/01 20:43:57;;;;;;;5.17;3.33;;;;;;;;;;4403391;32;20275;-59
2021/06/01 20:46:24;;;;;;;7.43;2.35;;;;;;;;;;4402035;32;20551;-58
2021/06/01 20:48:51;;;;;;;5.33;2.17;;;;;;;;;;4402058;32;20340;-59
2021/06/01 20:51:18;;;;;;;7.07;2.85;;;;;;;;;;4388162;32;20774;-59
2021/06/01 20:53:43;;;;;;;4.47;2.70;;;;;;;;;;4388523;32;20243;-59
2021/06/01 20:56:09;;;;;;;1.77;1.37;;;;;;;;;;4388447;32;20292;-59
2021/06/01 20:58:37;;;;;;;6.57;2.15;;;;;;;;;;4402551;32;20324;-58
2021/06/01 21:01:03;;;;;;;3.47;2.10;;;;;;;;;;4404821;32;20245;-59
2021/06/01 21:03:29;;;;;;;4.30;2.95;;;;;;;;;;4404841;32;20270;-61
2021/06/01 21:05:59;;;;;;;7.57;1.75;;;;;;;;;;4403969;32;20284;-59
2021/06/01 21:08:28;;;;;;;13.93;2.75;;;;;;;;;;4403035;32;20267;-58
2021/06/01 21:10:55;;;;;;;2.03;1.30;;;;;;;;;;4404265;32;20225;-59
2021/06/01 21:13:20;;;;;;;6.28;2.10;;;;;;;;;;4406041;32;20249;-59
2021/06/01 21:15:46;;;;;;;3.05;1.60;;;;;;;;;;4406066;32;20387;-58
2021/06/01 21:18:16;;;;;;;2.00;1.08;;;;;;;;;;4419885;32;20339;-57
2021/06/01 21:20:41;;;;;;;2.40;1.33;;;;;;;;;;4420561;32;20246;-57
2021/06/01 21:23:07;;;;;;;1.15;1.05;;;;;;;;;;4418938;32;20439;-58
2021/06/01 21:25:33;;;;;;;2.60;1.30;;;;;;;;;;4419973;32;20302;-58
2021/06/01 21:28:00;;;;;;;6.22;1.77;;;;;;;;;;4405743;32;20482;-58
2021/06/01 21:30:29;;;;;;;1.92;1.20;;;;;;;;;;4419797;32;20217;-57
2021/06/01 21:32:57;;;;;;;7.87;2.58;;;;;;;;;;4405021;32;20245;-58
2021/06/01 21:35:24;;;;;;;13.15;5.95;;;;;;;;;;4405089;32;20213;-58
2021/06/01 21:37:53;;;;;;;8.75;3.33;;;;;;;;;;4404782;32;20260;-59
2021/06/01 21:40:22;;;;;;;7.47;2.58;;;;;;;;;;4408852;32;20746;-58
2021/06/01 21:42:48;;;;;;;3.70;2.53;;;;;;;;;;4419473;32;20331;-58
2021/06/01 21:45:26;;;;;;;3.83;2.35;;;;;;;;;;4420285;32;20288;-58
2021/06/01 21:47:55;;;;;;;5.37;3.05;;;;;;;;;;4419688;32;20268;-59
2021/06/01 21:50:27;;;;;;;4.30;2.72;;;;;;;;;;4405625;32;20245;-61
2021/06/01 21:52:54;;;;;;;4.10;2.83;;;;;;;;;;4419567;32;20689;-58
2021/06/01 21:55:24;;;;;;;5.50;3.40;;;;;;;;;;4419769;32;20267;-58
2021/06/01 21:57:51;;;;;;;3.90;2.72;;;;;;;;;;4419355;32;20229;-58
2021/06/01 22:00:24;;;;;;;4.53;2.80;;;;;;;;;;4405907;32;20270;-58
2021/06/01 22:02:50;;;;;;;4.60;2.95;;;;;;;;;;4419441;32;20594;-57
2021/06/01 22:05:17;;;;;;;9.15;2.70;;;;;;;;;;4419497;32;20638;-57
2021/06/01 22:07:43;;;;;;;4.78;3.00;;;;;;;;;;4418748;32;20251;-57
2021/06/01 22:10:09;;;;;;;4.72;2.40;;;;;;;;;;4419433;32;20363;-58
2021/06/01 22:12:43;;;;;;;4.40;2.78;;;;;;;;;;4418819;32;20538;-58
2021/06/01 22:15:38;;;;;;;4.32;2.50;;;;;;;;;;4419052;32;20456;-57
2021/06/01 22:18:05;;;;;;;4.70;2.50;;;;;;;;;;4386298;32;20236;-57
2021/06/01 22:20:33;;;;;;;4.75;2.78;;;;;;;;;;4419297;32;20252;-56
2021/06/01 22:22:59;;;;;;;2.57;1.77;;;;;;;;;;4419464;32;20386;-57
2021/06/01 22:25:25;;;;;;;2.15;1.40;;;;;;;;;;4419083;32;20770;-58